Titusville, Florida
Current Conditions -  °F | °C
As of 6:22 PM on Saturday 22 Nov 2014 (Local Time) from KTTS Reporting Station
Overcast Overcast  
Wind Chill: 70°   Ceiling: 3200
Heat Index: 70°   Visibility: 8mi
Dew Point: 64°   Wind: 13mph
Humidity: 83%   Direction: 110°ESE
Pressure: 30.2"   Gusts: 23mph
Location:  28.61°N, 80.81°W
Report Text: KTTS 222322Z AUTO 11011G20KT 8SM FEW022 OVC032 21/18 A3020 RMK AO2 DZB1841E1850 VISNO RWY33 CHINO RWY33 $
Loading
Personal Weather Stations






























Interactive Weather Map New forecast layout! Learn more

10-Day Weather Forecast

Advertisements
Track Severe Weather on mobile